Time;durP1;ratioP1;P1;durP2;ratioP2;P2;SDS_P1;SDS_P2;PMS_P1;PMS_P2;Temp;Humidity;BMP_temperature;BMP_pressure;BME280_temperature;BME280_humidity;BME280_pressure;Samples;Min_cycle;Max_cycle;Signal;HPM_P1;HPM_P2
2022/01/02 00:02:15;;;;;;;16.80;11.18;;;;;;;;;;5056008;28;20461;-69
2022/01/02 00:04:45;;;;;;;15.50;10.63;;;;;;;;;;5056236;28;20024;-68
2022/01/02 00:07:13;;;;;;;19.10;11.85;;;;;;;;;;5055722;28;20044;-68
2022/01/02 00:09:40;;;;;;;16.80;11.45;;;;;;;;;;5056167;28;20083;-69
2022/01/02 00:12:13;;;;;;;21.00;12.48;;;;;;;;;;5056182;28;20040;-62
2022/01/02 00:14:44;;;;;;;17.35;12.13;;;;;;;;;;5055893;28;20041;-69
2022/01/02 00:17:09;;;;;;;19.45;12.55;;;;;;;;;;5055917;28;20040;-69
2022/01/02 00:19:38;;;;;;;20.30;12.57;;;;;;;;;;5054523;28;20017;-68
2022/01/02 00:22:13;;;;;;;21.67;13.50;;;;;;;;;;5055900;28;20421;-69
2022/01/02 00:24:40;;;;;;;20.20;12.82;;;;;;;;;;5055523;28;20029;-69
2022/01/02 00:27:07;;;;;;;18.33;12.68;;;;;;;;;;5037967;28;20025;-69
2022/01/02 00:29:35;;;;;;;23.95;13.50;;;;;;;;;;5055785;28;20112;-69
2022/01/02 00:32:00;;;;;;;19.85;13.15;;;;;;;;;;5055787;28;20028;-69
2022/01/02 00:34:26;;;;;;;21.00;13.90;;;;;;;;;;5054314;28;20056;-69
2022/01/02 00:36:52;;;;;;;25.27;14.32;;;;;;;;;;5055610;28;20024;-69
2022/01/02 00:39:17;;;;;;;24.38;15.10;;;;;;;;;;5055598;28;20056;-69
2022/01/02 00:41:56;;;;;;;23.17;14.82;;;;;;;;;;5055602;28;20013;-70
2022/01/02 00:44:27;;;;;;;23.55;14.40;;;;;;;;;;5055340;28;20029;-70
2022/01/02 00:47:03;;;;;;;21.27;13.95;;;;;;;;;;5055394;28;20494;-70
2022/01/02 00:49:29;;;;;;;22.15;14.75;;;;;;;;;;5055467;28;20078;-62
2022/01/02 00:52:04;;;;;;;19.73;14.23;;;;;;;;;;5055176;28;20444;-62
2022/01/02 00:54:32;;;;;;;24.23;15.25;;;;;;;;;;5054382;28;20044;-62
2022/01/02 00:57:02;;;;;;;18.90;13.68;;;;;;;;;;5055161;28;20099;-62
2022/01/02 00:59:30;;;;;;;21.83;13.95;;;;;;;;;;5054048;28;20063;-62
2022/01/02 01:02:02;;;;;;;18.70;13.90;;;;;;;;;;5054964;28;20040;-69
2022/01/02 01:04:29;;;;;;;23.23;15.48;;;;;;;;;;5053594;28;20036;-69
2022/01/02 01:06:56;;;;;;;22.55;14.57;;;;;;;;;;5054794;28;20603;-69
2022/01/02 01:09:22;;;;;;;29.55;17.63;;;;;;;;;;5053692;28;20249;-70
2022/01/02 01:11:47;;;;;;;31.63;18.05;;;;;;;;;;5053665;28;20068;-70
2022/01/02 01:14:13;;;;;;;32.58;19.02;;;;;;;;;;5054728;28;20029;-70
2022/01/02 01:16:39;;;;;;;33.60;20.40;;;;;;;;;;5053687;28;20033;-63
2022/01/02 01:19:15;;;;;;;32.88;19.92;;;;;;;;;;5053564;28;20032;-63
2022/01/02 01:21:40;;;;;;;34.60;20.52;;;;;;;;;;5053296;28;20028;-63
2022/01/02 01:24:08;;;;;;;32.95;19.48;;;;;;;;;;5053221;28;20111;-63
2022/01/02 01:26:34;;;;;;;32.05;19.85;;;;;;;;;;5054780;28;20056;-69
2022/01/02 01:29:00;;;;;;;39.72;21.95;;;;;;;;;;5054643;28;20021;-62
2022/01/02 01:31:26;;;;;;;36.47;20.83;;;;;;;;;;5053254;28;20116;-62
2022/01/02 01:33:51;;;;;;;26.40;14.43;;;;;;;;;;5053257;28;20510;-62
2022/01/02 01:36:17;;;;;;;31.83;18.25;;;;;;;;;;5054219;28;20087;-62
2022/01/02 01:38:42;;;;;;;28.15;14.35;;;;;;;;;;5052457;28;20025;-62
2022/01/02 01:41:08;;;;;;;31.63;18.60;;;;;;;;;;5052970;28;20052;-69
2022/01/02 01:43:40;;;;;;;30.20;18.40;;;;;;;;;;5053336;28;20032;-69
2022/01/02 01:46:06;;;;;;;29.98;17.67;;;;;;;;;;5052659;28;20114;-69
2022/01/02 01:48:31;;;;;;;25.38;15.35;;;;;;;;;;5054391;28;20048;-69
2022/01/02 01:50:57;;;;;;;35.10;20.02;;;;;;;;;;5052624;28;20487;-69
2022/01/02 01:53:23;;;;;;;29.00;16.90;;;;;;;;;;5052939;28;20356;-69
2022/01/02 01:55:49;;;;;;;26.98;16.38;;;;;;;;;;5052767;28;20033;-62
2022/01/02 01:58:15;;;;;;;28.30;15.48;;;;;;;;;;5054198;28;20017;-62
2022/01/02 02:00:44;;;;;;;26.83;16.30;;;;;;;;;;5052723;28;20033;-62
2022/01/02 02:03:19;;;;;;;36.00;19.40;;;;;;;;;;5052930;28;20032;-62
2022/01/02 02:05:45;;;;;;;39.17;22.08;;;;;;;;;;5052127;28;20029;-63
2022/01/02 02:08:11;;;;;;;36.72;20.88;;;;;;;;;;5053907;28;20029;-62
2022/01/02 02:10:40;;;;;;;29.30;16.58;;;;;;;;;;5052475;28;20394;-62
2022/01/02 02:13:08;;;;;;;32.60;19.50;;;;;;;;;;5052518;28;20029;-62
2022/01/02 02:15:39;;;;;;;27.38;15.90;;;;;;;;;;5052690;28;20051;-62
2022/01/02 02:18:04;;;;;;;36.42;21.70;;;;;;;;;;5052364;28;20041;-62
2022/01/02 02:20:31;;;;;;;30.83;17.35;;;;;;;;;;5052463;28;20033;-62
2022/01/02 02:23:00;;;;;;;32.33;18.98;;;;;;;;;;5052264;28;20068;-62
2022/01/02 02:25:27;;;;;;;27.35;15.82;;;;;;;;;;5053540;28;20025;-62
2022/01/02 02:27:53;;;;;;;26.80;16.92;;;;;;;;;;5052532;28;20024;-62
2022/01/02 02:30:19;;;;;;;36.15;17.02;;;;;;;;;;5052371;28;20393;-69
2022/01/02 02:32:44;;;;;;;30.77;17.27;;;;;;;;;;5053491;28;20074;-69
2022/01/02 02:35:10;;;;;;;26.83;14.30;;;;;;;;;;5052168;28;20430;-69
2022/01/02 02:37:43;;;;;;;38.33;19.15;;;;;;;;;;5053335;28;20070;-69
2022/01/02 02:40:10;;;;;;;38.03;19.50;;;;;;;;;;5051935;28;20028;-69
2022/01/02 02:50:50;;;;;;;42.85;21.85;;;;;;;;;;5053269;28;20052;-62
2022/01/02 02:53:15;;;;;;;31.95;16.05;;;;;;;;;;5051967;28;20037;-62
2022/01/02 02:55:47;;;;;;;41.85;22.23;;;;;;;;;;5053335;28;20021;-62
2022/01/02 03:00:58;;;;;;;48.17;25.38;;;;;;;;;;5052026;28;20079;-62
2022/01/02 03:03:23;;;;;;;31.77;16.60;;;;;;;;;;5051703;28;20048;-62
2022/01/02 03:05:49;;;;;;;33.13;17.88;;;;;;;;;;5055495;28;20482;-62
2022/01/02 03:08:14;;;;;;;39.60;22.50;;;;;;;;;;5051118;28;20040;-62
2022/01/02 03:10:40;;;;;;;45.95;24.08;;;;;;;;;;5051847;28;20108;-62
2022/01/02 03:13:06;;;;;;;35.95;19.60;;;;;;;;;;5051813;28;20498;-62
2022/01/02 03:15:31;;;;;;;43.00;23.27;;;;;;;;;;5051890;28;20471;-62
2022/01/02 03:17:57;;;;;;;36.00;20.27;;;;;;;;;;5052015;28;20437;-62
2022/01/02 03:20:23;;;;;;;30.40;17.33;;;;;;;;;;5051702;28;20036;-68
2022/01/02 03:22:48;;;;;;;32.85;18.05;;;;;;;;;;5051693;28;20476;-69
2022/01/02 03:25:14;;;;;;;33.85;18.90;;;;;;;;;;5051939;28;20028;-69
2022/01/02 03:27:41;;;;;;;32.72;18.10;;;;;;;;;;5051780;28;20021;-69
2022/01/02 03:30:07;;;;;;;30.08;18.00;;;;;;;;;;5053129;28;20021;-69
2022/01/02 03:32:33;;;;;;;32.67;19.42;;;;;;;;;;5052981;28;20418;-69
2022/01/02 03:34:59;;;;;;;34.63;19.80;;;;;;;;;;5052252;28;20044;-69
2022/01/02 03:37:28;;;;;;;38.75;21.83;;;;;;;;;;5051713;28;20029;-70
2022/01/02 03:39:54;;;;;;;33.08;18.02;;;;;;;;;;5051768;28;20090;-70
2022/01/02 03:42:20;;;;;;;40.05;22.67;;;;;;;;;;5052653;28;20032;-70
2022/01/02 03:44:46;;;;;;;38.08;21.05;;;;;;;;;;5051565;28;20025;-69
2022/01/02 03:47:11;;;;;;;41.85;24.05;;;;;;;;;;5051520;28;20100;-69
2022/01/02 03:49:37;;;;;;;41.50;24.00;;;;;;;;;;5052664;28;20131;-69
2022/01/02 03:52:03;;;;;;;40.17;23.33;;;;;;;;;;5034960;28;20028;-71
2022/01/02 03:54:28;;;;;;;43.78;24.58;;;;;;;;;;5051267;28;20501;-70
2022/01/02 03:56:54;;;;;;;42.88;25.13;;;;;;;;;;5052682;28;20013;-70
2022/01/02 03:59:20;;;;;;;39.83;23.55;;;;;;;;;;5051325;28;20490;-69
2022/01/02 04:01:46;;;;;;;40.03;23.27;;;;;;;;;;5054273;28;20017;-68
2022/01/02 04:04:11;;;;;;;43.45;24.70;;;;;;;;;;5056058;28;20037;-68
2022/01/02 04:06:37;;;;;;;41.95;24.75;;;;;;;;;;5054829;28;20050;-69
2022/01/02 04:09:03;;;;;;;41.80;24.15;;;;;;;;;;5054412;28;20507;-63
2022/01/02 04:11:30;;;;;;;42.15;24.45;;;;;;;;;;5054893;28;20035;-63
2022/01/02 04:13:56;;;;;;;30.65;17.30;;;;;;;;;;5054731;28;20032;-62
2022/01/02 04:16:22;;;;;;;29.50;18.10;;;;;;;;;;5056139;28;20013;-68
2022/01/02 04:18:50;;;;;;;29.83;18.45;;;;;;;;;;5054795;28;20056;-68
2022/01/02 04:21:16;;;;;;;37.13;21.95;;;;;;;;;;5054811;28;20395;-68
2022/01/02 04:23:41;;;;;;;41.38;23.95;;;;;;;;;;5054536;28;20040;-68
2022/01/02 04:26:07;;;;;;;40.78;24.17;;;;;;;;;;5054455;28;20017;-68
2022/01/02 04:28:33;;;;;;;44.58;25.23;;;;;;;;;;5054525;28;20117;-70
2022/01/02 04:30:59;;;;;;;39.55;23.55;;;;;;;;;;5054373;28;20051;-69
2022/01/02 04:33:24;;;;;;;45.55;26.25;;;;;;;;;;5054516;28;20072;-69
2022/01/02 04:35:50;;;;;;;42.58;24.80;;;;;;;;;;5054477;28;20108;-69
2022/01/02 04:38:16;;;;;;;41.35;23.92;;;;;;;;;;5054253;28;20044;-69
2022/01/02 04:40:42;;;;;;;43.00;25.08;;;;;;;;;;5054220;28;20031;-69
2022/01/02 04:43:08;;;;;;;44.72;25.98;;;;;;;;;;5054282;28;20112;-69
2022/01/02 04:45:34;;;;;;;48.33;25.80;;;;;;;;;;5055374;28;20075;-69
2022/01/02 04:48:00;;;;;;;41.92;24.45;;;;;;;;;;5053945;28;20032;-68
2022/01/02 04:50:25;;;;;;;45.58;25.33;;;;;;;;;;5055149;28;20092;-68
2022/01/02 04:52:51;;;;;;;44.78;25.40;;;;;;;;;;5054036;28;20025;-67
2022/01/02 04:55:17;;;;;;;43.63;25.20;;;;;;;;;;5054000;28;20017;-69
2022/01/02 04:57:42;;;;;;;40.83;23.50;;;;;;;;;;5053933;28;20471;-69
2022/01/02 05:00:08;;;;;;;41.80;23.75;;;;;;;;;;5053896;28;20077;-69
2022/01/02 05:02:34;;;;;;;39.50;23.77;;;;;;;;;;5053914;28;20349;-69
2022/01/02 05:05:00;;;;;;;41.97;24.55;;;;;;;;;;5053833;28;20356;-70
2022/01/02 05:07:26;;;;;;;40.10;24.05;;;;;;;;;;5053781;28;20021;-69
2022/01/02 05:09:52;;;;;;;32.80;21.63;;;;;;;;;;5053491;28;20569;-70
2022/01/02 05:12:18;;;;;;;36.42;22.02;;;;;;;;;;5052571;28;20029;-71
2022/01/02 05:14:43;;;;;;;33.83;21.35;;;;;;;;;;5054903;28;20083;-69
2022/01/02 05:17:09;;;;;;;32.25;20.85;;;;;;;;;;5053990;28;20035;-70
2022/01/02 05:19:34;;;;;;;33.50;21.33;;;;;;;;;;5053660;28;20021;-70
2022/01/02 05:22:00;;;;;;;37.95;21.95;;;;;;;;;;5054932;28;20032;-70
2022/01/02 05:24:26;;;;;;;40.30;22.75;;;;;;;;;;5053297;28;20044;-69
2022/01/02 05:26:53;;;;;;;38.50;23.08;;;;;;;;;;5053618;28;20029;-69
2022/01/02 05:29:20;;;;;;;37.67;22.30;;;;;;;;;;5053393;28;20104;-69
2022/01/02 05:31:45;;;;;;;39.00;21.63;;;;;;;;;;5053301;28;20116;-69
2022/01/02 05:34:11;;;;;;;35.95;21.90;;;;;;;;;;5053247;28;20029;-68
2022/01/02 05:36:37;;;;;;;47.58;25.00;;;;;;;;;;5053205;28;20436;-69
2022/01/02 05:39:03;;;;;;;52.53;27.02;;;;;;;;;;5053151;28;20013;-68
2022/01/02 05:41:32;;;;;;;58.58;30.30;;;;;;;;;;5053056;28;20503;-62
2022/01/02 05:43:57;;;;;;;85.50;39.80;;;;;;;;;;5052892;28;20024;-62
2022/01/02 05:46:24;;;;;;;142.32;58.72;;;;;;;;;;5053088;28;20028;-62
2022/01/02 05:48:50;;;;;;;241.60;95.30;;;;;;;;;;5053135;28;20009;-62
2022/01/02 05:51:16;;;;;;;235.55;92.95;;;;;;;;;;5052824;28;20029;-62
2022/01/02 05:53:42;;;;;;;211.18;84.28;;;;;;;;;;5052995;28;20021;-62
2022/01/02 05:56:08;;;;;;;180.07;71.43;;;;;;;;;;5052757;28;20472;-62
2022/01/02 05:58:34;;;;;;;80.70;40.42;;;;;;;;;;5052771;28;20017;-62
2022/01/02 06:01:00;;;;;;;51.90;29.30;;;;;;;;;;5052757;28;20035;-62
2022/01/02 06:03:26;;;;;;;43.80;24.73;;;;;;;;;;5052821;28;20025;-67
2022/01/02 06:05:52;;;;;;;39.80;24.13;;;;;;;;;;5052826;28;20455;-68
2022/01/02 06:08:18;;;;;;;36.20;21.27;;;;;;;;;;5052224;28;20020;-67
2022/01/02 06:10:43;;;;;;;36.38;20.35;;;;;;;;;;5052557;28;20119;-68
2022/01/02 06:13:09;;;;;;;27.85;17.15;;;;;;;;;;5052586;28;20039;-69
2022/01/02 06:15:35;;;;;;;27.02;16.83;;;;;;;;;;5052582;28;20041;-68
2022/01/02 06:18:01;;;;;;;26.98;15.07;;;;;;;;;;5052369;28;20021;-68
2022/01/02 06:20:27;;;;;;;24.05;15.43;;;;;;;;;;5052246;28;20110;-69
2022/01/02 06:22:54;;;;;;;23.30;14.48;;;;;;;;;;5052002;28;20483;-62
2022/01/02 06:25:20;;;;;;;21.75;14.18;;;;;;;;;;5052234;28;20032;-62
2022/01/02 06:27:46;;;;;;;20.83;14.00;;;;;;;;;;5052510;28;20021;-63
2022/01/02 06:30:12;;;;;;;19.75;13.75;;;;;;;;;;5052151;28;20532;-63
2022/01/02 06:32:38;;;;;;;20.95;13.65;;;;;;;;;;5052142;28;20112;-64
2022/01/02 06:35:04;;;;;;;20.25;13.98;;;;;;;;;;5052735;28;20128;-63
2022/01/02 06:37:31;;;;;;;21.80;14.00;;;;;;;;;;5052047;28;20116;-63
2022/01/02 06:39:56;;;;;;;21.27;13.93;;;;;;;;;;5053537;28;20507;-62
2022/01/02 06:42:23;;;;;;;17.10;12.70;;;;;;;;;;5053287;28;20020;-62
2022/01/02 06:44:49;;;;;;;18.30;12.23;;;;;;;;;;5052029;28;20463;-62
2022/01/02 06:47:15;;;;;;;18.15;12.35;;;;;;;;;;5052142;28;20025;-62
2022/01/02 06:49:41;;;;;;;15.95;11.85;;;;;;;;;;5052123;28;20054;-62
2022/01/02 06:52:06;;;;;;;18.27;12.95;;;;;;;;;;5051832;28;20383;-62
2022/01/02 06:54:32;;;;;;;20.27;14.02;;;;;;;;;;5052043;28;20045;-68
2022/01/02 06:56:58;;;;;;;22.33;16.38;;;;;;;;;;5052037;28;20502;-70
2022/01/02 06:59:23;;;;;;;22.67;17.60;;;;;;;;;;5053557;28;20453;-69
2022/01/02 07:01:49;;;;;;;24.02;17.05;;;;;;;;;;5052180;28;20021;-71
2022/01/02 07:04:15;;;;;;;24.88;16.08;;;;;;;;;;5052009;28;20059;-71
2022/01/02 07:06:41;;;;;;;22.23;15.45;;;;;;;;;;5052108;28;20071;-71
2022/01/02 07:09:07;;;;;;;23.55;15.95;;;;;;;;;;5051518;28;20037;-70
2022/01/02 07:11:33;;;;;;;27.50;16.02;;;;;;;;;;5053051;28;20459;-71
2022/01/02 07:13:59;;;;;;;39.72;22.88;;;;;;;;;;5052886;28;20099;-70
2022/01/02 07:16:24;;;;;;;36.60;22.80;;;;;;;;;;5053126;28;20548;-71
2022/01/02 07:18:51;;;;;;;31.10;19.40;;;;;;;;;;5052857;28;20040;-70
2022/01/02 07:21:17;;;;;;;23.45;15.68;;;;;;;;;;5044258;28;20028;-69
2022/01/02 07:23:43;;;;;;;19.48;12.70;;;;;;;;;;5044245;28;20029;-69
2022/01/02 07:26:09;;;;;;;14.13;10.15;;;;;;;;;;5041616;28;20013;-71
2022/01/02 07:28:35;;;;;;;13.48;11.07;;;;;;;;;;5035212;28;20459;-63
2022/01/02 07:31:03;;;;;;;20.92;14.35;;;;;;;;;;5038106;28;20010;-63
2022/01/02 07:33:28;;;;;;;27.50;17.08;;;;;;;;;;5035539;28;20029;-62
2022/01/02 07:35:54;;;;;;;50.83;27.70;;;;;;;;;;5034924;28;20032;-63
2022/01/02 07:38:19;;;;;;;48.38;27.35;;;;;;;;;;5041375;28;20026;-62
2022/01/02 07:40:46;;;;;;;39.22;22.60;;;;;;;;;;5045478;28;20057;-70
2022/01/02 07:43:12;;;;;;;27.13;16.48;;;;;;;;;;5045410;28;20424;-69
2022/01/02 07:45:37;;;;;;;15.30;11.50;;;;;;;;;;5050868;28;20119;-70
2022/01/02 07:48:04;;;;;;;15.20;10.98;;;;;;;;;;5056705;28;20119;-70
2022/01/02 07:50:30;;;;;;;10.30;9.13;;;;;;;;;;5056523;28;20482;-70
2022/01/02 07:52:56;;;;;;;14.90;9.65;;;;;;;;;;5056411;28;20029;-69
2022/01/02 07:55:22;;;;;;;18.95;14.93;;;;;;;;;;5055876;28;20101;-70
2022/01/02 07:57:47;;;;;;;18.67;14.60;;;;;;;;;;5056286;28;20120;-70
2022/01/02 08:00:13;;;;;;;14.07;11.27;;;;;;;;;;5055981;28;20353;-69
2022/01/02 08:02:40;;;;;;;11.80;9.77;;;;;;;;;;5056309;28;20062;-69
2022/01/02 08:05:10;;;;;;;13.45;9.52;;;;;;;;;;5056167;28;20025;-69
2022/01/02 08:07:40;;;;;;;12.93;10.48;;;;;;;;;;5056568;28;20021;-69
2022/01/02 08:10:06;;;;;;;12.90;10.40;;;;;;;;;;5055946;28;20128;-69
2022/01/02 08:12:31;;;;;;;19.88;12.10;;;;;;;;;;5056187;28;20072;-69
2022/01/02 08:14:57;;;;;;;25.38;15.98;;;;;;;;;;5056239;28;20033;-69
2022/01/02 08:17:22;;;;;;;25.65;14.95;;;;;;;;;;5054795;28;20133;-69
2022/01/02 08:19:48;;;;;;;29.35;16.27;;;;;;;;;;5056182;28;20039;-69
2022/01/02 08:22:13;;;;;;;29.67;16.95;;;;;;;;;;5055209;28;20017;-69
2022/01/02 08:24:40;;;;;;;26.65;15.48;;;;;;;;;;5055897;28;20021;-69
2022/01/02 08:27:05;;;;;;;24.35;14.27;;;;;;;;;;5054806;28;20017;-70
2022/01/02 08:29:31;;;;;;;32.20;17.75;;;;;;;;;;5055707;28;20078;-69
2022/01/02 08:31:56;;;;;;;31.02;19.83;;;;;;;;;;5055633;28;20025;-69
2022/01/02 08:34:22;;;;;;;31.15;20.48;;;;;;;;;;5055633;28;20051;-69
2022/01/02 08:36:47;;;;;;;28.55;18.92;;;;;;;;;;5037808;28;20053;-69
2022/01/02 08:39:13;;;;;;;18.50;13.32;;;;;;;;;;5055775;28;20048;-69
2022/01/02 08:41:38;;;;;;;13.73;11.75;;;;;;;;;;5055526;28;20029;-67
2022/01/02 08:44:03;;;;;;;14.07;10.65;;;;;;;;;;5055705;28;20020;-70
2022/01/02 08:46:29;;;;;;;13.40;10.80;;;;;;;;;;5054226;28;20031;-68
2022/01/02 08:48:54;;;;;;;12.82;9.98;;;;;;;;;;5053983;28;20094;-69
2022/01/02 08:51:20;;;;;;;11.75;10.30;;;;;;;;;;5055531;28;20017;-69
2022/01/02 08:53:45;;;;;;;13.25;10.68;;;;;;;;;;5055428;28;20440;-68
2022/01/02 08:56:11;;;;;;;11.23;10.00;;;;;;;;;;5055292;28;20067;-68
2022/01/02 08:58:36;;;;;;;10.82;8.70;;;;;;;;;;5055254;28;20081;-70
2022/01/02 09:01:02;;;;;;;12.20;9.77;;;;;;;;;;5055253;28;20352;-70
2022/01/02 09:03:29;;;;;;;14.15;9.75;;;;;;;;;;5055293;28;20073;-71
2022/01/02 09:05:54;;;;;;;11.70;8.65;;;;;;;;;;5054934;28;20036;-70
2022/01/02 09:08:20;;;;;;;11.02;8.73;;;;;;;;;;5054695;28;20395;-70
2022/01/02 09:10:45;;;;;;;10.73;8.13;;;;;;;;;;5043702;28;20046;-70
2022/01/02 09:13:11;;;;;;;11.10;8.18;;;;;;;;;;5045795;28;20120;-61
2022/01/02 09:15:37;;;;;;;14.90;8.68;;;;;;;;;;5043943;28;20079;-61
2022/01/02 09:18:05;;;;;;;13.20;9.00;;;;;;;;;;5049309;28;20021;-63
2022/01/02 09:20:30;;;;;;;11.88;8.45;;;;;;;;;;5054928;28;20051;-60
2022/01/02 09:22:56;;;;;;;14.88;9.57;;;;;;;;;;5054739;28;20068;-61
2022/01/02 09:25:21;;;;;;;13.50;9.18;;;;;;;;;;5054686;28;20013;-61
2022/01/02 09:27:46;;;;;;;11.43;8.77;;;;;;;;;;5054836;28;20106;-61
2022/01/02 09:30:12;;;;;;;10.93;9.15;;;;;;;;;;5054796;28;20028;-61
2022/01/02 09:32:38;;;;;;;13.73;9.00;;;;;;;;;;5054691;28;20533;-62
2022/01/02 09:35:04;;;;;;;11.65;8.43;;;;;;;;;;5054366;28;20017;-62
2022/01/02 09:37:30;;;;;;;11.55;8.50;;;;;;;;;;5054372;28;20124;-61
2022/01/02 09:39:55;;;;;;;10.85;8.88;;;;;;;;;;5054658;28;20107;-61
2022/01/02 09:42:21;;;;;;;10.55;8.60;;;;;;;;;;5054605;28;20051;-61
2022/01/02 09:44:46;;;;;;;13.93;10.35;;;;;;;;;;5053063;28;20021;-61
2022/01/02 09:47:14;;;;;;;13.13;10.70;;;;;;;;;;5054296;28;20029;-61
2022/01/02 09:49:39;;;;;;;13.00;10.07;;;;;;;;;;5054287;28;20017;-61
2022/01/02 09:52:06;;;;;;;12.27;9.50;;;;;;;;;;5054260;28;20178;-61
2022/01/02 09:54:32;;;;;;;10.73;8.48;;;;;;;;;;5053077;28;20433;-61
2022/01/02 09:56:57;;;;;;;9.90;8.05;;;;;;;;;;5054361;28;20514;-61
2022/01/02 09:59:23;;;;;;;9.20;7.18;;;;;;;;;;5052859;28;20034;-61
2022/01/02 10:01:48;;;;;;;11.00;7.28;;;;;;;;;;5054207;28;20021;-61
2022/01/02 10:04:15;;;;;;;9.13;7.07;;;;;;;;;;5053966;28;20104;-61
2022/01/02 10:06:40;;;;;;;10.50;7.10;;;;;;;;;;5053999;28;20033;-61
2022/01/02 10:09:13;;;;;;;9.07;7.35;;;;;;;;;;5050873;28;20048;-61
2022/01/02 10:11:40;;;;;;;9.80;7.25;;;;;;;;;;5053234;28;20024;-61
2022/01/02 10:14:08;;;;;;;10.18;7.78;;;;;;;;;;5053320;28;20505;-61
2022/01/02 10:16:34;;;;;;;8.93;7.25;;;;;;;;;;5052588;28;20114;-62
2022/01/02 10:19:19;;;;;;;9.23;7.35;;;;;;;;;;5053605;28;20410;-61
2022/01/02 10:22:05;;;;;;;9.35;7.55;;;;;;;;;;5053351;28;20052;-61
2022/01/02 10:24:33;;;;;;;10.57;7.43;;;;;;;;;;5053257;28;20411;-61
2022/01/02 10:27:07;;;;;;;10.60;7.95;;;;;;;;;;5053538;28;20021;-61
2022/01/02 10:29:43;;;;;;;11.02;8.13;;;;;;;;;;5053430;28;20043;-61
2022/01/02 10:32:29;;;;;;;12.07;8.27;;;;;;;;;;5053654;28;20033;-61
2022/01/02 10:35:13;;;;;;;11.55;7.15;;;;;;;;;;5053474;28;20032;-61
2022/01/02 10:37:39;;;;;;;10.00;6.90;;;;;;;;;;5052206;28;20029;-61
2022/01/02 10:40:05;;;;;;;8.63;6.53;;;;;;;;;;5053534;28;20027;-60
2022/01/02 10:42:39;;;;;;;9.48;7.28;;;;;;;;;;5053418;28;20037;-60
2022/01/02 10:45:05;;;;;;;10.23;7.25;;;;;;;;;;5053368;28;20116;-61
2022/01/02 10:47:30;;;;;;;9.70;6.70;;;;;;;;;;5053551;28;20053;-61
2022/01/02 10:49:56;;;;;;;12.75;7.80;;;;;;;;;;5053304;28;20025;-62
2022/01/02 10:52:26;;;;;;;11.52;7.47;;;;;;;;;;5052137;28;20024;-61
2022/01/02 10:54:51;;;;;;;12.38;8.15;;;;;;;;;;5053037;28;20364;-61
2022/01/02 10:57:17;;;;;;;8.40;7.32;;;;;;;;;;5053119;28;20029;-61
2022/01/02 10:59:43;;;;;;;8.73;6.97;;;;;;;;;;5053361;28;20569;-61
2022/01/02 11:02:10;;;;;;;10.23;6.57;;;;;;;;;;5053130;28;20024;-61
2022/01/02 11:04:37;;;;;;;9.73;6.57;;;;;;;;;;5053307;28;20478;-61
2022/01/02 11:07:02;;;;;;;8.35;5.68;;;;;;;;;;5051983;28;20028;-61
2022/01/02 11:09:28;;;;;;;10.73;6.63;;;;;;;;;;5052523;28;20033;-61
2022/01/02 11:11:53;;;;;;;10.55;6.70;;;;;;;;;;5056692;28;20025;-61
2022/01/02 11:14:19;;;;;;;11.25;7.18;;;;;;;;;;5057387;28;20111;-61
2022/01/02 11:16:45;;;;;;;8.63;6.53;;;;;;;;;;5057442;28;20036;-61
2022/01/02 11:19:11;;;;;;;11.75;7.35;;;;;;;;;;5057127;28;20020;-61
2022/01/02 11:21:40;;;;;;;8.38;6.35;;;;;;;;;;5056920;28;20438;-61
2022/01/02 11:24:18;;;;;;;7.97;5.72;;;;;;;;;;5056010;28;20078;-61
2022/01/02 11:26:54;;;;;;;8.55;6.32;;;;;;;;;;5056844;28;20036;-61
2022/01/02 11:29:26;;;;;;;9.52;5.65;;;;;;;;;;5057087;28;20040;-61
2022/01/02 11:31:52;;;;;;;8.50;6.15;;;;;;;;;;5055702;28;20066;-61
2022/01/02 11:34:25;;;;;;;7.35;5.55;;;;;;;;;;5056886;28;20017;-61
2022/01/02 11:36:51;;;;;;;9.63;5.40;;;;;;;;;;5056849;28;20025;-69
2022/01/02 11:39:16;;;;;;;7.05;5.20;;;;;;;;;;5056843;28;20025;-68
2022/01/02 11:41:43;;;;;;;8.55;5.30;;;;;;;;;;5056822;28;20377;-68
2022/01/02 11:44:10;;;;;;;6.70;5.10;;;;;;;;;;5056648;28;20053;-67
2022/01/02 11:46:38;;;;;;;6.60;5.30;;;;;;;;;;5056766;28;20029;-67
2022/01/02 11:49:15;;;;;;;6.70;4.63;;;;;;;;;;5055362;28;20371;-67
2022/01/02 11:51:47;;;;;;;9.48;5.20;;;;;;;;;;5056166;28;20467;-68
2022/01/02 11:54:49;;;;;;;7.68;5.28;;;;;;;;;;5056507;28;20032;-67
2022/01/02 11:57:14;;;;;;;8.70;5.10;;;;;;;;;;5056173;28;20053;-68
2022/01/02 11:59:40;;;;;;;8.75;6.05;;;;;;;;;;5056602;28;20029;-68
2022/01/02 12:02:08;;;;;;;9.75;6.90;;;;;;;;;;5056374;28;20033;-67
2022/01/02 12:04:52;;;;;;;9.55;6.75;;;;;;;;;;5054969;28;20028;-67
2022/01/02 12:07:33;;;;;;;10.85;6.00;;;;;;;;;;5055066;28;20032;-67
2022/01/02 12:10:17;;;;;;;9.15;5.55;;;;;;;;;;5071216;28;20487;-68
2022/01/02 12:13:04;;;;;;;8.27;5.03;;;;;;;;;;5055010;28;20021;-68
2022/01/02 12:15:35;;;;;;;7.57;5.28;;;;;;;;;;5056204;28;20115;-68
2022/01/02 12:18:07;;;;;;;8.85;4.53;;;;;;;;;;5056237;28;20429;-67
2022/01/02 12:20:56;;;;;;;9.60;5.20;;;;;;;;;;5055644;28;20116;-67
2022/01/02 12:23:41;;;;;;;6.68;5.05;;;;;;;;;;5056037;28;20041;-67
2022/01/02 12:26:09;;;;;;;6.43;4.50;;;;;;;;;;5056053;28;20056;-67
2022/01/02 12:28:39;;;;;;;7.60;5.10;;;;;;;;;;5055909;28;20028;-68
2022/01/02 12:31:05;;;;;;;8.35;4.78;;;;;;;;;;5055894;28;20033;-67
2022/01/02 12:33:31;;;;;;;8.18;5.13;;;;;;;;;;5055775;28;20027;-68
2022/01/02 12:35:57;;;;;;;6.40;4.47;;;;;;;;;;5055798;28;20465;-67
2022/01/02 12:38:23;;;;;;;6.60;4.63;;;;;;;;;;5055598;28;20081;-68
2022/01/02 12:40:49;;;;;;;7.68;4.88;;;;;;;;;;5054341;28;20025;-67
2022/01/02 12:43:22;;;;;;;5.93;4.32;;;;;;;;;;5055446;28;20463;-67
2022/01/02 12:45:52;;;;;;;7.53;5.18;;;;;;;;;;5056116;28;20036;-68
2022/01/02 12:48:18;;;;;;;;;;;;;;;;;;5055948;28;20048;-68
2022/01/02 12:50:44;;;;;;;4.75;3.67;;;;;;;;;;5055336;28;19905;-68
2022/01/02 12:53:10;;;;;;;7.53;5.47;;;;;;;;;;5055473;28;20035;-68
2022/01/02 12:55:35;;;;;;;7.63;5.05;;;;;;;;;;5055546;28;20449;-68
2022/01/02 12:58:02;;;;;;;6.40;5.40;;;;;;;;;;5055539;28;20032;-68
2022/01/02 13:00:27;;;;;;;6.63;5.25;;;;;;;;;;5055219;28;20522;-67
2022/01/02 13:02:54;;;;;;;8.85;4.90;;;;;;;;;;5055125;28;20037;-67
2022/01/02 13:05:20;;;;;;;8.77;6.50;;;;;;;;;;5055103;28;20017;-67
2022/01/02 13:07:46;;;;;;;10.82;5.93;;;;;;;;;;5055141;28;20021;-68
2022/01/02 13:10:13;;;;;;;8.25;6.03;;;;;;;;;;5054795;28;20048;-67
2022/01/02 13:12:39;;;;;;;9.35;5.90;;;;;;;;;;5055113;28;20032;-68
2022/01/02 13:15:05;;;;;;;7.88;5.63;;;;;;;;;;5054767;28;20415;-67
2022/01/02 13:17:35;;;;;;;11.15;6.07;;;;;;;;;;5054999;28;20024;-67
2022/01/02 13:20:04;;;;;;;10.60;6.72;;;;;;;;;;5054908;28;20044;-67
2022/01/02 13:22:31;;;;;;;9.10;5.57;;;;;;;;;;5054954;28;20425;-67
2022/01/02 13:24:56;;;;;;;8.65;6.55;;;;;;;;;;5054728;28;20024;-67
2022/01/02 13:27:23;;;;;;;9.02;5.82;;;;;;;;;;5054739;28;20341;-67
2022/01/02 13:30:04;;;;;;;8.93;5.57;;;;;;;;;;5053722;28;20029;-68
2022/01/02 13:32:37;;;;;;;6.63;4.78;;;;;;;;;;5054289;28;20074;-68
2022/01/02 13:35:07;;;;;;;7.28;4.18;;;;;;;;;;5054451;28;20033;-68
2022/01/02 13:37:37;;;;;;;6.35;4.95;;;;;;;;;;5054718;28;20025;-68
2022/01/02 13:40:04;;;;;;;5.93;4.75;;;;;;;;;;5053299;28;20468;-68
2022/01/02 13:42:37;;;;;;;6.35;4.40;;;;;;;;;;5053282;28;20383;-68
2022/01/02 13:45:10;;;;;;;7.80;4.57;;;;;;;;;;5054362;28;20035;-68
2022/01/02 13:47:36;;;;;;;9.20;4.25;;;;;;;;;;5054481;28;20021;-68
2022/01/02 13:50:02;;;;;;;6.28;4.35;;;;;;;;;;5054403;28;20360;-68
2022/01/02 13:52:28;;;;;;;6.72;4.03;;;;;;;;;;5036679;28;20025;-69
2022/01/02 13:55:07;;;;;;;7.80;4.88;;;;;;;;;;5054378;28;20396;-68
2022/01/02 13:57:33;;;;;;;5.97;3.95;;;;;;;;;;5054414;28;20025;-68
2022/01/02 14:00:14;;;;;;;5.63;3.92;;;;;;;;;;5054139;28;20017;-68
2022/01/02 14:02:39;;;;;;;7.90;4.25;;;;;;;;;;5054339;28;20036;-68
2022/01/02 14:05:05;;;;;;;5.45;4.28;;;;;;;;;;5054079;28;20025;-68
2022/01/02 14:07:30;;;;;;;6.43;4.07;;;;;;;;;;5053984;28;20025;-68
2022/01/02 14:09:56;;;;;;;7.55;4.47;;;;;;;;;;5052513;28;20037;-68
2022/01/02 14:12:26;;;;;;;6.95;4.28;;;;;;;;;;5052944;28;20025;-68
2022/01/02 14:15:01;;;;;;;11.05;6.53;;;;;;;;;;5053947;28;20025;-68
2022/01/02 14:17:36;;;;;;;7.68;5.25;;;;;;;;;;5053876;28;20083;-68
2022/01/02 14:20:05;;;;;;;8.13;4.85;;;;;;;;;;5053902;28;20037;-68
2022/01/02 14:22:35;;;;;;;7.07;4.63;;;;;;;;;;5053921;28;20032;-68
2022/01/02 14:25:01;;;;;;;6.22;4.20;;;;;;;;;;5053894;28;20029;-68
2022/01/02 14:27:29;;;;;;;7.38;5.00;;;;;;;;;;5053877;28;20364;-68
2022/01/02 14:29:55;;;;;;;5.90;4.25;;;;;;;;;;5053570;28;20119;-68
2022/01/02 14:32:21;;;;;;;5.20;3.75;;;;;;;;;;5053747;28;20052;-68
2022/01/02 14:34:47;;;;;;;6.38;3.50;;;;;;;;;;5053528;28;20106;-68
2022/01/02 14:37:13;;;;;;;6.20;4.38;;;;;;;;;;5053333;28;20081;-68
2022/01/02 14:39:39;;;;;;;7.40;4.70;;;;;;;;;;5053626;28;20171;-69